createdAt,value
2023-09-29T00:02:01.806Z,5.60
2023-09-29T00:04:35.828Z,6.55
2023-09-29T00:07:23.496Z,5.47
2023-09-29T00:09:56.989Z,5.72
2023-09-29T00:12:45.290Z,5.70
2023-09-29T00:15:20.597Z,6.20
2023-09-29T00:18:09.528Z,6.30
2023-09-29T00:20:43.681Z,6.20
2023-09-29T00:23:31.530Z,7.92
2023-09-29T00:26:05.127Z,6.22
2023-09-29T00:28:52.976Z,6.20
2023-09-29T00:31:26.329Z,9.33
2023-09-29T00:34:14.087Z,6.65
2023-09-29T00:36:48.595Z,6.72
2023-09-29T00:39:36.551Z,7.17
2023-09-29T00:42:10.339Z,5.97
2023-09-29T00:44:57.898Z,6.50
2023-09-29T00:47:48.279Z,6.75
2023-09-29T00:50:22.688Z,7.08
2023-09-29T00:53:15.419Z,6.80
2023-09-29T00:55:49.993Z,6.80
2023-09-29T00:58:39.050Z,6.28
2023-09-29T01:01:13.277Z,6.40
2023-09-29T01:04:00.882Z,6.42
2023-09-29T01:06:34.417Z,7.17
2023-09-29T01:12:05.694Z,7.58
2023-09-29T01:14:39.277Z,7.50
2023-09-29T01:17:27.920Z,7.12
2023-09-29T01:20:01.828Z,7.15
2023-09-29T01:22:51.203Z,8.45
2023-09-29T01:25:24.945Z,7.75
2023-09-29T01:28:13.421Z,7.40
2023-09-29T01:30:46.909Z,6.75
2023-09-29T01:33:34.966Z,6.72
2023-09-29T01:36:09.852Z,7.90
2023-09-29T01:38:57.717Z,8.10
2023-09-29T01:41:31.692Z,7.80
2023-09-29T01:44:19.404Z,6.65
2023-09-29T01:46:52.851Z,7.22
2023-09-29T01:49:40.551Z,7.60
2023-09-29T01:52:14.053Z,7.25
2023-09-29T01:54:47.471Z,7.22
2023-09-29T01:57:35.771Z,7.92
2023-09-29T02:00:14.261Z,7.33
2023-09-29T02:03:03.904Z,7.05
2023-09-29T02:05:38.186Z,8.40
2023-09-29T02:08:26.974Z,6.30
2023-09-29T02:11:01.827Z,6.65
2023-09-29T02:13:49.820Z,6.58
2023-09-29T02:16:28.292Z,5.80
2023-09-29T02:19:17.323Z,6.10
2023-09-29T02:22:06.285Z,6.53
2023-09-29T02:24:40.651Z,5.95
2023-09-29T02:27:28.431Z,6.40
2023-09-29T02:30:01.763Z,6.90
2023-09-29T02:32:50.179Z,6.53
2023-09-29T02:35:25.425Z,6.70
2023-09-29T02:38:13.950Z,6.92
2023-09-29T02:41:01.746Z,6.87
2023-09-29T02:43:49.400Z,6.90
2023-09-29T02:46:22.688Z,6.55
2023-09-29T02:49:10.668Z,6.55
2023-09-29T02:51:44.352Z,7.67
2023-09-29T02:54:32.119Z,6.53
2023-09-29T02:57:05.578Z,7.50
2023-09-29T02:59:53.396Z,6.80
2023-09-29T03:02:26.911Z,7.10
2023-09-29T03:05:16.443Z,7.20
2023-09-29T03:07:51.647Z,6.75
2023-09-29T03:10:40.216Z,7.83
2023-09-29T03:13:14.486Z,6.47
2023-09-29T03:16:03.007Z,6.83
2023-09-29T03:18:36.961Z,6.83
2023-09-29T03:21:24.669Z,6.92
2023-09-29T03:23:58.299Z,7.12
2023-09-29T03:26:48.612Z,7.70
2023-09-29T03:29:22.319Z,7.92
2023-09-29T03:32:10.598Z,6.15
2023-09-29T03:34:44.292Z,7.40
2023-09-29T03:37:33.414Z,6.60
2023-09-29T03:40:12.087Z,6.95
2023-09-29T03:43:01.074Z,7.12
2023-09-29T03:45:50.716Z,7.55
2023-09-29T03:48:39.565Z,6.35
2023-09-29T03:51:13.065Z,6.55
2023-09-29T03:54:00.905Z,5.95
2023-09-29T03:56:34.470Z,6.83
2023-09-29T03:59:22.791Z,6.62
2023-09-29T04:01:56.374Z,6.75
2023-09-29T04:04:43.855Z,7.42
2023-09-29T04:07:31.357Z,7.87
2023-09-29T04:10:12.576Z,7.10
2023-09-29T04:13:00.290Z,7.22
2023-09-29T04:15:33.777Z,7.40
2023-09-29T04:18:21.482Z,6.87
2023-09-29T04:21:18.901Z,6.87
2023-09-29T04:24:06.123Z,6.75
2023-09-29T04:26:39.635Z,6.53
2023-09-29T04:29:27.405Z,7.00
2023-09-29T04:32:15.032Z,6.97
2023-09-29T04:35:02.296Z,8.23
2023-09-29T04:37:35.761Z,7.17
2023-09-29T04:40:23.970Z,6.78
2023-09-29T04:43:11.937Z,7.28
2023-09-29T04:45:45.355Z,6.97
2023-09-29T04:48:33.213Z,6.97
2023-09-29T04:51:06.764Z,8.43
2023-09-29T04:53:54.085Z,8.20
2023-09-29T04:56:27.588Z,7.15
2023-09-29T04:59:15.441Z,7.00
2023-09-29T05:01:49.144Z,7.70
2023-09-29T05:04:36.688Z,7.85
2023-09-29T05:07:10.230Z,7.85
2023-09-29T05:09:58.342Z,7.40
2023-09-29T05:12:31.691Z,8.60
2023-09-29T05:15:19.261Z,13.53
2023-09-29T05:17:52.721Z,18.40
2023-09-29T05:20:40.285Z,14.45
2023-09-29T05:23:13.847Z,11.05
2023-09-29T05:26:05.563Z,8.78
2023-09-29T05:28:39.954Z,10.20
2023-09-29T05:31:27.519Z,9.88
2023-09-29T05:34:15.115Z,17.70
2023-09-29T05:36:48.434Z,16.10
2023-09-29T05:39:36.791Z,18.37
2023-09-29T05:42:10.537Z,15.78
2023-09-29T05:44:58.777Z,12.75
2023-09-29T05:47:34.943Z,20.30
2023-09-29T05:50:23.413Z,10.13
2023-09-29T05:53:11.505Z,10.00
2023-09-29T05:55:44.882Z,7.80
2023-09-29T05:58:32.150Z,7.95
2023-09-29T06:01:12.234Z,6.87
2023-09-29T06:04:00.235Z,6.72
2023-09-29T06:06:33.572Z,7.97
2023-09-29T06:09:21.705Z,6.92
2023-09-29T06:12:10.220Z,6.00
2023-09-29T06:14:43.681Z,6.72
2023-09-29T06:17:31.657Z,6.92
2023-09-29T06:20:20.681Z,7.72
2023-09-29T06:22:54.184Z,7.10
2023-09-29T06:25:42.136Z,7.95
2023-09-29T06:28:15.736Z,6.80
2023-09-29T06:31:03.790Z,7.10
2023-09-29T06:33:51.665Z,7.10
2023-09-29T06:36:25.265Z,5.70
2023-09-29T06:39:13.824Z,6.62
2023-09-29T06:42:01.493Z,5.35
2023-09-29T06:44:35.312Z,6.20
2023-09-29T06:47:22.749Z,6.15
2023-09-29T06:49:57.148Z,5.47
2023-09-29T06:52:44.608Z,6.08
2023-09-29T06:55:32.512Z,6.22
2023-09-29T06:58:20.174Z,6.67
2023-09-29T07:00:53.577Z,7.37
2023-09-29T07:03:41.170Z,6.90
2023-09-29T07:06:14.739Z,6.90
2023-09-29T07:09:03.183Z,6.47
2023-09-29T07:11:53.376Z,6.60
2023-09-29T07:14:26.806Z,6.62
2023-09-29T07:17:14.637Z,6.65
2023-09-29T07:19:48.084Z,6.05
2023-09-29T07:22:37.561Z,5.67
2023-09-29T07:25:13.103Z,6.58
2023-09-29T07:28:01.081Z,5.90
2023-09-29T07:30:34.502Z,7.25
2023-09-29T07:33:22.111Z,6.65
2023-09-29T07:35:55.788Z,6.10
2023-09-29T07:38:43.998Z,6.62
2023-09-29T07:41:18.466Z,6.30
2023-09-29T07:44:07.574Z,6.87
2023-09-29T07:46:41.198Z,7.12
2023-09-29T07:49:29.341Z,6.83
2023-09-29T07:52:02.673Z,5.95
2023-09-29T07:54:50.484Z,7.05
2023-09-29T07:57:24.426Z,6.83
2023-09-29T08:00:15.234Z,5.95
2023-09-29T08:03:02.965Z,6.22
2023-09-29T08:05:36.770Z,6.50
2023-09-29T08:08:25.655Z,7.08
2023-09-29T08:11:13.217Z,7.20
2023-09-29T08:13:48.018Z,6.65
2023-09-29T08:16:36.311Z,6.65
2023-09-29T08:19:09.943Z,8.08
2023-09-29T08:21:57.555Z,7.75
2023-09-29T08:24:45.016Z,8.13
2023-09-29T08:27:18.511Z,7.17
2023-09-29T08:30:12.279Z,6.55
2023-09-29T08:33:14.644Z,7.33
2023-09-29T08:35:34.927Z,7.17
2023-09-29T08:38:23.818Z,7.25
2023-09-29T08:40:59.608Z,7.60
2023-09-29T08:44:04.041Z,8.00
2023-09-29T08:46:41.442Z,7.08
2023-09-29T08:49:17.205Z,6.20
2023-09-29T08:52:07.081Z,6.00
2023-09-29T08:54:41.209Z,6.87
2023-09-29T08:57:30.007Z,7.80
2023-09-29T09:00:05.644Z,7.42
2023-09-29T09:02:53.557Z,8.00
2023-09-29T09:05:27.301Z,6.67
2023-09-29T09:08:15.199Z,7.50
2023-09-29T09:11:03.816Z,7.33
2023-09-29T09:13:37.529Z,6.90
2023-09-29T09:16:25.716Z,7.35
2023-09-29T09:19:00.733Z,9.25
2023-09-29T09:21:48.504Z,6.50
2023-09-29T09:24:35.791Z,5.87
2023-09-29T09:27:10.138Z,5.83
2023-09-29T09:29:58.721Z,6.25
2023-09-29T09:32:35.782Z,6.77
2023-09-29T09:35:30.888Z,5.72
2023-09-29T09:38:05.794Z,6.37
2023-09-29T09:40:59.301Z,6.40
2023-09-29T09:43:34.396Z,5.40
2023-09-29T09:46:23.083Z,6.55
2023-09-29T09:49:01.503Z,6.37
2023-09-29T09:51:50.953Z,5.78
2023-09-29T09:54:27.257Z,6.97
2023-09-29T09:57:18.635Z,5.85
2023-09-29T09:59:55.822Z,6.20
2023-09-29T10:02:45.886Z,5.67
2023-09-29T10:05:23.558Z,5.87
2023-09-29T10:08:14.128Z,6.08
2023-09-29T10:11:12.772Z,6.50
2023-09-29T10:13:51.293Z,6.37
2023-09-29T10:16:40.427Z,5.37
2023-09-29T10:19:38.807Z,4.20
2023-09-29T10:22:12.656Z,4.95
2023-09-29T10:25:01.069Z,4.20
2023-09-29T10:27:36.147Z,4.62
2023-09-29T10:30:27.640Z,4.25
2023-09-29T10:33:08.708Z,4.03
2023-09-29T10:35:56.369Z,4.70
2023-09-29T10:38:31.204Z,4.97
2023-09-29T10:41:34.446Z,4.58
2023-09-29T10:43:56.854Z,4.37
2023-09-29T10:46:52.343Z,4.70
2023-09-29T10:49:36.569Z,4.37
2023-09-29T10:52:24.565Z,4.58
2023-09-29T10:55:00.315Z,4.28
2023-09-29T10:57:51.152Z,4.80
2023-09-29T11:02:57.296Z,3.95
2023-09-29T11:05:56.145Z,4.08
2023-09-29T11:08:34.352Z,4.50
2023-09-29T11:11:22.269Z,3.98
2023-09-29T11:14:10.284Z,4.15
2023-09-29T11:16:43.938Z,4.03
2023-09-29T11:19:32.763Z,4.55
2023-09-29T11:22:07.214Z,4.70
2023-09-29T11:24:55.591Z,4.45
2023-09-29T11:27:34.909Z,4.95
2023-09-29T11:30:24.525Z,4.72
2023-09-29T11:32:58.468Z,4.75
2023-09-29T11:38:36.823Z,4.47
2023-09-29T11:41:10.082Z,4.58
2023-09-29T11:43:57.908Z,4.70
2023-09-29T11:46:31.248Z,5.12
2023-09-29T11:49:18.819Z,4.75
2023-09-29T11:51:54.780Z,4.05
2023-09-29T11:54:42.434Z,4.17
2023-09-29T11:57:15.845Z,4.08
2023-09-29T12:00:03.684Z,4.28
2023-09-29T12:02:52.740Z,4.25
2023-09-29T12:05:41.252Z,3.98
2023-09-29T12:08:14.893Z,5.08
2023-09-29T12:11:02.571Z,4.42
2023-09-29T12:13:50.470Z,4.35
2023-09-29T12:16:24.056Z,4.40
2023-09-29T12:18:58.221Z,4.28
2023-09-29T12:21:45.632Z,4.15
2023-09-29T12:24:19.300Z,4.22
2023-09-29T12:27:07.325Z,4.00
2023-09-29T12:29:41.105Z,3.55
2023-09-29T12:32:28.479Z,4.17
2023-09-29T12:35:16.289Z,4.22
2023-09-29T12:37:50.058Z,5.17
2023-09-29T12:40:39.219Z,3.98
2023-09-29T12:43:12.471Z,4.78
2023-09-29T12:45:59.922Z,4.00
2023-09-29T12:48:33.578Z,4.03
2023-09-29T12:51:28.002Z,4.28
2023-09-29T12:53:57.914Z,4.22
2023-09-29T12:56:59.545Z,4.55
2023-09-29T12:59:37.570Z,4.33
2023-09-29T13:02:12.322Z,3.80
2023-09-29T13:05:00.342Z,5.37
2023-09-29T13:07:34.883Z,4.33
2023-09-29T13:10:23.403Z,4.42
2023-09-29T13:12:56.905Z,5.37
2023-09-29T13:15:44.799Z,4.37
2023-09-29T13:18:18.117Z,4.50
2023-09-29T13:21:06.090Z,4.87
2023-09-29T13:23:39.456Z,4.92
2023-09-29T13:26:27.149Z,4.83
2023-09-29T13:29:00.375Z,4.97
2023-09-29T13:31:48.127Z,4.10
2023-09-29T13:34:36.339Z,4.15
2023-09-29T13:37:09.793Z,5.17
2023-09-29T13:39:58.462Z,4.62
2023-09-29T13:42:31.837Z,4.87
2023-09-29T13:45:19.880Z,5.53
2023-09-29T13:47:53.607Z,4.65
2023-09-29T13:50:47.333Z,5.00
2023-09-29T13:53:20.961Z,5.92
2023-09-29T13:56:09.675Z,5.35
2023-09-29T13:58:43.700Z,5.83
2023-09-29T14:01:19.336Z,5.12
2023-09-29T14:04:08.410Z,5.12
2023-09-29T14:06:56.720Z,5.87
2023-09-29T14:09:30.240Z,5.62
2023-09-29T14:12:17.838Z,6.30
2023-09-29T14:14:51.085Z,5.85
2023-09-29T14:17:38.697Z,5.90
2023-09-29T14:20:14.803Z,6.30
2023-09-29T14:23:03.379Z,5.20
2023-09-29T14:25:37.311Z,5.62
2023-09-29T14:28:25.466Z,6.03
2023-09-29T14:31:14.374Z,5.55
2023-09-29T14:33:47.568Z,5.55
2023-09-29T14:36:35.149Z,6.80
2023-09-29T14:39:22.887Z,5.62
2023-09-29T14:41:56.312Z,5.78
2023-09-29T14:44:44.220Z,5.87
2023-09-29T14:47:17.975Z,5.92
2023-09-29T14:50:07.862Z,6.08
2023-09-29T14:52:55.512Z,5.95
2023-09-29T14:55:29.599Z,6.30
2023-09-29T14:58:17.779Z,6.72
2023-09-29T15:00:50.953Z,7.10
2023-09-29T15:03:39.039Z,7.53
2023-09-29T15:06:15.326Z,6.50
2023-09-29T15:09:02.686Z,7.17
2023-09-29T15:11:36.651Z,6.85
2023-09-29T15:14:25.771Z,7.75
2023-09-29T15:16:59.419Z,6.97
2023-09-29T15:19:47.146Z,7.45
2023-09-29T15:22:22.540Z,6.67
2023-09-29T15:25:11.910Z,7.83
2023-09-29T15:27:45.509Z,6.78
2023-09-29T15:30:32.894Z,7.80
2023-09-29T15:33:06.710Z,7.33
2023-09-29T15:35:56.571Z,7.62
2023-09-29T15:38:29.919Z,7.60
2023-09-29T15:41:17.548Z,6.87
2023-09-29T15:44:05.455Z,7.15
2023-09-29T15:46:39.008Z,7.58
2023-09-29T15:49:26.671Z,7.60
2023-09-29T15:52:00.151Z,8.38
2023-09-29T15:54:47.569Z,8.60
2023-09-29T15:57:35.904Z,8.58
2023-09-29T16:00:14.295Z,8.65
2023-09-29T16:03:02.206Z,9.23
2023-09-29T16:05:36.103Z,7.90
2023-09-29T16:08:23.977Z,8.00
2023-09-29T16:10:58.498Z,8.73
2023-09-29T16:13:46.837Z,8.53
2023-09-29T16:16:20.520Z,7.90
2023-09-29T16:19:08.326Z,8.80
2023-09-29T16:21:41.734Z,8.38
2023-09-29T16:24:30.138Z,8.35
2023-09-29T16:27:05.492Z,9.73
2023-09-29T16:29:53.118Z,8.60
2023-09-29T16:32:32.453Z,8.85
2023-09-29T16:35:21.466Z,8.53
2023-09-29T16:37:51.754Z,8.93
2023-09-29T16:40:40.272Z,9.18
2023-09-29T16:43:14.206Z,8.43
2023-09-29T16:46:02.069Z,9.05
2023-09-29T16:48:35.348Z,8.60
2023-09-29T16:51:25.055Z,9.45
2023-09-29T16:53:59.244Z,9.33
2023-09-29T16:56:46.997Z,9.80
2023-09-29T16:59:20.553Z,9.90
2023-09-29T17:02:08.347Z,9.53
2023-09-29T17:04:56.284Z,10.13
2023-09-29T17:07:29.891Z,9.40
2023-09-29T17:10:17.792Z,10.32
2023-09-29T17:12:52.687Z,10.08
2023-09-29T17:15:43.107Z,10.45
2023-09-29T17:18:17.223Z,9.65
2023-09-29T17:21:05.153Z,10.63
2023-09-29T17:23:52.804Z,9.38
2023-09-29T17:26:26.327Z,10.85
2023-09-29T17:29:14.297Z,10.85
2023-09-29T17:31:48.736Z,10.58
2023-09-29T17:34:37.853Z,10.90
2023-09-29T17:37:25.476Z,11.73
2023-09-29T17:39:59.832Z,10.53
2023-09-29T17:42:53.548Z,10.55
2023-09-29T17:45:27.702Z,11.05
2023-09-29T17:48:29.791Z,12.20
2023-09-29T17:50:50.729Z,11.48
2023-09-29T17:53:40.153Z,10.03
2023-09-29T17:56:14.075Z,11.45
2023-09-29T17:59:02.257Z,10.08
2023-09-29T18:01:35.981Z,10.23
2023-09-29T18:04:24.600Z,10.90
2023-09-29T18:07:00.252Z,10.72
2023-09-29T18:09:48.217Z,11.95
2023-09-29T18:12:22.254Z,11.65
2023-09-29T18:15:13.042Z,12.60
2023-09-29T18:17:46.875Z,10.53
2023-09-29T18:20:35.069Z,11.30
2023-09-29T18:23:09.084Z,10.30
2023-09-29T18:25:56.738Z,11.15
2023-09-29T18:28:31.876Z,12.05
2023-09-29T18:31:19.785Z,11.20
2023-09-29T18:33:54.068Z,11.50
2023-09-29T18:36:41.569Z,10.32
2023-09-29T18:39:17.453Z,9.90
2023-09-29T18:42:07.280Z,11.33
2023-09-29T18:44:40.435Z,10.45
2023-09-29T18:47:28.756Z,10.08
2023-09-29T18:50:02.868Z,10.60
2023-09-29T18:52:50.607Z,10.68
2023-09-29T18:55:39.802Z,9.33
2023-09-29T18:58:27.482Z,10.43
2023-09-29T19:01:01.006Z,12.33
2023-09-29T19:03:48.529Z,10.60
2023-09-29T19:06:37.517Z,10.15
2023-09-29T19:09:11.760Z,11.30
2023-09-29T19:12:01.226Z,10.08
2023-09-29T19:14:34.858Z,10.18
2023-09-29T19:17:24.020Z,10.85
2023-09-29T19:20:13.012Z,10.90
2023-09-29T19:22:46.444Z,11.08
2023-09-29T19:25:19.954Z,11.12
2023-09-29T19:28:10.185Z,10.72
2023-09-29T19:30:58.802Z,9.68
2023-09-29T19:33:32.153Z,9.88
2023-09-29T19:36:19.981Z,10.15
2023-09-29T19:38:53.653Z,11.50
2023-09-29T19:41:41.306Z,11.83
2023-09-29T19:44:14.836Z,10.70
2023-09-29T19:47:02.369Z,11.20
2023-09-29T19:49:51.160Z,10.80
2023-09-29T19:52:24.512Z,11.05
2023-09-29T19:55:17.216Z,9.35
2023-09-29T19:57:51.892Z,10.60
2023-09-29T20:00:39.324Z,11.18
2023-09-29T20:03:14.520Z,11.10
2023-09-29T20:06:03.046Z,10.53
2023-09-29T20:08:51.627Z,10.63
2023-09-29T20:11:26.290Z,10.82
2023-09-29T20:14:14.711Z,11.15
2023-09-29T20:16:48.322Z,11.40
2023-09-29T20:19:36.658Z,10.35
2023-09-29T20:22:10.917Z,11.70
2023-09-29T20:25:01.895Z,11.30
2023-09-29T20:27:35.674Z,10.77
2023-09-29T20:30:23.694Z,10.32
2023-09-29T20:32:58.300Z,10.75
2023-09-29T20:35:46.250Z,10.13
2023-09-29T20:38:34.639Z,9.85
2023-09-29T20:41:22.866Z,9.93
2023-09-29T20:43:57.312Z,10.93
2023-09-29T20:46:46.377Z,10.70
2023-09-29T20:49:20.625Z,11.10
2023-09-29T20:51:54.233Z,10.40
2023-09-29T20:54:42.173Z,10.75
2023-09-29T20:57:16.038Z,11.25
2023-09-29T21:00:03.944Z,9.83
2023-09-29T21:02:37.925Z,11.78
2023-09-29T21:05:26.218Z,10.50
2023-09-29T21:08:00.342Z,10.95
2023-09-29T21:10:48.128Z,10.38
2023-09-29T21:13:21.729Z,10.10
2023-09-29T21:16:12.162Z,11.15
2023-09-29T21:18:45.948Z,11.08
2023-09-29T21:21:33.618Z,12.25
2023-09-29T21:24:21.663Z,11.28
2023-09-29T21:26:55.054Z,12.05
2023-09-29T21:29:42.634Z,13.40
2023-09-29T21:32:15.871Z,11.85
2023-09-29T21:35:03.420Z,12.33
2023-09-29T21:37:36.946Z,11.08
2023-09-29T21:40:24.733Z,10.95
2023-09-29T21:43:12.371Z,12.03
2023-09-29T21:46:00.016Z,12.20
2023-09-29T21:48:47.755Z,11.18
2023-09-29T21:51:21.508Z,11.75
2023-09-29T21:54:11.096Z,10.43
2023-09-29T21:56:58.760Z,9.73
2023-09-29T21:59:32.249Z,10.68
2023-09-29T22:02:20.094Z,10.75
2023-09-29T22:05:10.609Z,9.43
2023-09-29T22:07:44.502Z,10.40
2023-09-29T22:10:33.150Z,11.55
2023-09-29T22:13:07.247Z,11.00
2023-09-29T22:15:56.375Z,12.03
2023-09-29T22:18:29.852Z,11.08
2023-09-29T22:21:19.594Z,10.10
2023-09-29T22:23:53.750Z,9.65
2023-09-29T22:26:41.571Z,9.25
2023-09-29T22:29:14.830Z,9.85
2023-09-29T22:32:03.704Z,10.93
2023-09-29T22:34:53.323Z,9.23
2023-09-29T22:37:26.866Z,10.85
2023-09-29T22:40:16.482Z,9.85
2023-09-29T22:42:50.487Z,9.58
2023-09-29T22:45:23.985Z,8.90
2023-09-29T22:48:11.734Z,9.28
2023-09-29T22:50:45.526Z,9.45
2023-09-29T22:53:33.069Z,8.85
2023-09-29T22:56:13.366Z,9.38
2023-09-29T22:59:00.909Z,9.28
2023-09-29T23:01:35.079Z,9.63
2023-09-29T23:04:22.708Z,9.80
2023-09-29T23:06:55.853Z,10.25
2023-09-29T23:09:43.540Z,9.63
2023-09-29T23:12:31.444Z,9.75
2023-09-29T23:15:06.313Z,8.68
2023-09-29T23:17:55.618Z,9.33
2023-09-29T23:20:43.388Z,9.15
2023-09-29T23:23:32.537Z,9.83
2023-09-29T23:26:22.256Z,9.55
2023-09-29T23:29:09.885Z,9.83
2023-09-29T23:31:43.901Z,10.60
2023-09-29T23:34:31.523Z,10.68
2023-09-29T23:37:19.248Z,11.43
2023-09-29T23:40:08.015Z,9.68
2023-09-29T23:42:42.501Z,11.83
2023-09-29T23:45:30.321Z,11.68
2023-09-29T23:48:04.051Z,11.40
2023-09-29T23:50:51.616Z,11.22
2023-09-29T23:53:26.735Z,12.60
2023-09-29T23:56:14.370Z,12.65
2023-09-29T23:59:02.490Z,12.07
